createdAt,value
2022-09-24T00:04:52.611Z,68.93
2022-09-24T00:09:55.394Z,61.04
2022-09-24T00:14:58.234Z,51.53
2022-09-24T00:20:01.370Z,52.05
2022-09-24T00:25:23.405Z,53.32
2022-09-24T00:30:26.329Z,54.30
2022-09-24T00:35:32.203Z,55.48
2022-09-24T00:40:37.303Z,56.54
2022-09-24T00:45:42.614Z,57.47
2022-09-24T00:50:46.044Z,58.51
2022-09-24T00:55:54.718Z,59.41
2022-09-24T01:01:04.459Z,60.21
2022-09-24T01:06:09.447Z,60.86
2022-09-24T01:11:40.781Z,69.47
2022-09-24T01:17:00.202Z,59.18
2022-09-24T01:22:30.601Z,51.54
2022-09-24T01:28:00.354Z,52.24
2022-09-24T01:33:08.298Z,53.52
2022-09-24T01:38:21.554Z,54.62
2022-09-24T01:43:27.206Z,55.92
2022-09-24T01:48:30.564Z,57.18
2022-09-24T01:53:44.958Z,58.16
2022-09-24T01:58:49.240Z,58.96
2022-09-24T02:03:57.804Z,58.26
2022-09-24T02:09:00.829Z,60.04
2022-09-24T02:14:09.671Z,60.86
2022-09-24T02:19:17.472Z,68.92
2022-09-24T02:24:29.677Z,59.79
2022-09-24T02:29:32.503Z,51.32
2022-09-24T02:34:47.248Z,52.40
2022-09-24T02:39:50.916Z,53.52
2022-09-24T02:44:57.474Z,55.20
2022-09-24T02:50:00.672Z,56.16
2022-09-24T02:55:05.125Z,57.00
2022-09-24T03:00:08.967Z,57.97
2022-09-24T03:05:12.657Z,58.79
2022-09-24T03:10:15.509Z,59.71
2022-09-24T03:15:18.308Z,60.38
2022-09-24T03:20:21.749Z,68.49
2022-09-24T03:25:25.872Z,59.72
2022-09-24T03:30:47.025Z,51.30
2022-09-24T03:35:49.843Z,52.07
2022-09-24T03:40:53.256Z,53.47
2022-09-24T03:45:56.191Z,54.49
2022-09-24T03:51:14.138Z,55.65
2022-09-24T03:56:17.090Z,56.57
2022-09-24T04:01:22.020Z,57.82
2022-09-24T04:06:27.135Z,58.87
2022-09-24T04:11:29.941Z,59.74
2022-09-24T04:16:33.029Z,60.40
2022-09-24T04:21:36.217Z,69.08
2022-09-24T04:26:39.121Z,61.53
2022-09-24T04:31:42.033Z,50.96
2022-09-24T04:36:44.878Z,51.83
2022-09-24T04:41:48.040Z,52.98
2022-09-24T04:46:50.927Z,54.22
2022-09-24T04:51:53.709Z,55.63
2022-09-24T04:56:56.569Z,56.73
2022-09-24T05:01:59.520Z,58.07
2022-09-24T05:07:02.398Z,59.09
2022-09-24T05:12:05.937Z,60.02
2022-09-24T05:17:08.696Z,69.22
2022-09-24T05:22:11.725Z,62.36
2022-09-24T05:27:14.502Z,51.63
2022-09-24T05:32:19.965Z,51.86
2022-09-24T05:37:22.796Z,52.90
2022-09-24T05:42:25.757Z,54.49
2022-09-24T05:47:28.641Z,55.75
2022-09-24T05:52:31.529Z,57.02
2022-09-24T05:57:34.552Z,58.24
2022-09-24T06:02:37.480Z,59.28
2022-09-24T06:07:40.352Z,60.37
2022-09-24T06:12:44.051Z,69.78
2022-09-24T06:17:47.234Z,62.25
2022-09-24T06:22:50.698Z,52.37
2022-09-24T06:28:00.461Z,52.61
2022-09-24T06:33:14.039Z,54.38
2022-09-24T06:38:18.527Z,55.41
2022-09-24T06:43:21.438Z,56.30
2022-09-24T06:48:25.022Z,57.43
2022-09-24T06:53:27.993Z,58.52
2022-09-24T06:58:31.084Z,59.00
2022-09-24T07:03:34.640Z,59.73
2022-09-24T07:08:38.295Z,60.33
2022-09-24T07:13:41.170Z,60.26
2022-09-24T07:18:44.044Z,60.80
2022-09-24T07:23:47.490Z,68.87
2022-09-24T07:28:50.342Z,59.22
2022-09-24T07:33:53.603Z,52.00
2022-09-24T07:38:56.523Z,53.11
2022-09-24T07:43:59.346Z,54.14
2022-09-24T07:49:02.393Z,55.33
2022-09-24T07:54:06.450Z,55.93
2022-09-24T07:59:11.332Z,57.13
2022-09-24T08:04:14.337Z,57.46
2022-09-24T08:09:17.375Z,57.80
2022-09-24T08:14:20.498Z,58.46
2022-09-24T08:19:23.377Z,58.97
2022-09-24T08:24:26.355Z,59.24
2022-09-24T08:29:29.142Z,58.64
2022-09-24T08:34:38.416Z,58.49
2022-09-24T08:39:41.271Z,58.28
2022-09-24T08:45:04.618Z,57.72
2022-09-24T08:50:17.550Z,57.42
2022-09-24T08:55:25.920Z,56.84
2022-09-24T09:00:36.426Z,56.10
2022-09-24T09:05:49.636Z,55.67
2022-09-24T09:10:58.695Z,56.31
2022-09-24T09:16:07.116Z,56.24
2022-09-24T09:21:24.595Z,56.47
2022-09-24T09:26:28.019Z,55.72
2022-09-24T09:31:40.044Z,55.15
2022-09-24T09:37:14.048Z,54.71
2022-09-24T09:42:36.495Z,54.50
2022-09-24T09:47:51.016Z,54.60
2022-09-24T09:52:54.892Z,54.10
2022-09-24T09:58:16.092Z,53.75
2022-09-24T10:03:26.376Z,53.69
2022-09-24T10:08:30.205Z,52.68
2022-09-24T10:13:33.675Z,52.84
2022-09-24T10:18:43.542Z,52.69
2022-09-24T10:23:50.311Z,52.59
2022-09-24T10:29:12.020Z,52.96
2022-09-24T10:34:29.055Z,55.90
2022-09-24T10:39:31.972Z,60.08
2022-09-24T10:44:37.228Z,58.80
2022-09-24T10:50:01.418Z,56.78
2022-09-24T10:55:15.210Z,56.19
2022-09-24T11:00:28.611Z,57.03
2022-09-24T11:05:57.265Z,55.52
2022-09-24T11:11:09.729Z,53.65
2022-09-24T11:16:39.141Z,54.05
2022-09-24T11:22:38.927Z,51.84
2022-09-24T11:28:01.307Z,56.17
2022-09-24T11:33:26.349Z,54.55
2022-09-24T11:39:04.801Z,53.94
2022-09-24T11:44:28.722Z,53.65
2022-09-24T11:50:11.246Z,52.25
2022-09-24T11:55:22.181Z,50.14
2022-09-24T12:00:32.515Z,50.75
2022-09-24T12:05:39.624Z,51.33
2022-09-24T12:10:51.520Z,54.14
2022-09-24T12:16:03.667Z,53.79
2022-09-24T12:21:13.233Z,53.33
2022-09-24T12:26:17.854Z,53.24
2022-09-24T12:31:47.104Z,52.51
2022-09-24T12:37:11.761Z,51.26
2022-09-24T12:42:17.296Z,50.76
2022-09-24T12:47:25.912Z,48.28
2022-09-24T12:52:36.600Z,49.24
2022-09-24T12:57:42.705Z,50.65
2022-09-24T13:02:47.864Z,51.14
2022-09-24T13:08:24.834Z,50.67
2022-09-24T13:13:30.890Z,48.48
2022-09-24T13:18:36.115Z,47.39
2022-09-24T13:23:49.754Z,48.74
2022-09-24T13:29:01.622Z,49.33
2022-09-24T13:34:10.453Z,49.37
2022-09-24T13:39:34.703Z,49.16
2022-09-24T13:44:43.887Z,48.49
2022-09-24T13:49:50.378Z,47.30
2022-09-24T13:54:57.214Z,46.94
2022-09-24T14:00:16.415Z,48.44
2022-09-24T14:05:20.067Z,48.64
2022-09-24T14:10:25.295Z,47.89
2022-09-24T14:15:28.309Z,48.22
2022-09-24T14:20:35.441Z,48.33
2022-09-24T14:25:39.923Z,47.05
2022-09-24T14:30:55.328Z,48.89
2022-09-24T14:35:59.480Z,49.90
2022-09-24T14:41:25.163Z,45.80
2022-09-24T14:46:48.836Z,43.62
2022-09-24T14:51:55.303Z,43.84
2022-09-24T14:57:10.974Z,44.79
2022-09-24T15:02:19.920Z,45.52
2022-09-24T15:07:30.121Z,45.49
2022-09-24T15:12:36.624Z,45.82
2022-09-24T15:17:39.618Z,46.09
2022-09-24T15:22:42.606Z,46.60
2022-09-24T15:27:45.862Z,47.40
2022-09-24T15:32:50.175Z,47.40
2022-09-24T15:37:53.142Z,47.67
2022-09-24T15:42:56.185Z,48.39
2022-09-24T15:47:59.155Z,48.67
2022-09-24T15:53:02.593Z,48.38
2022-09-24T15:58:15.812Z,49.00
2022-09-24T16:03:30.254Z,49.07
2022-09-24T16:08:33.171Z,49.04
2022-09-24T16:13:36.266Z,49.53
2022-09-24T16:18:40.833Z,50.00
2022-09-24T16:23:43.839Z,50.19
2022-09-24T16:28:47.614Z,50.73
2022-09-24T16:33:50.542Z,51.05
2022-09-24T16:38:53.387Z,51.43
2022-09-24T16:43:57.010Z,51.88
2022-09-24T16:48:59.945Z,52.48
2022-09-24T16:54:03.081Z,52.80
2022-09-24T16:59:06.230Z,53.14
2022-09-24T17:04:09.806Z,54.04
2022-09-24T17:09:31.610Z,54.67
2022-09-24T17:14:37.624Z,54.64
2022-09-24T17:19:40.588Z,54.86
2022-09-24T17:24:43.793Z,55.21
2022-09-24T17:29:47.920Z,55.68
2022-09-24T17:34:50.896Z,56.03
2022-09-24T17:39:53.709Z,56.65
2022-09-24T17:44:56.585Z,56.92
2022-09-24T17:50:00.151Z,57.50
2022-09-24T17:55:08.485Z,57.99
2022-09-24T18:00:11.742Z,59.71
2022-09-24T18:05:14.846Z,59.22
2022-09-24T18:10:20.365Z,58.76
2022-09-24T18:15:23.168Z,58.64
2022-09-24T18:20:26.386Z,58.87
2022-09-24T18:25:29.418Z,59.15
2022-09-24T18:30:32.793Z,59.38
2022-09-24T18:35:35.665Z,59.81
2022-09-24T18:40:38.712Z,60.03
2022-09-24T18:45:41.809Z,60.12
2022-09-24T18:50:45.203Z,60.39
2022-09-24T18:55:48.091Z,60.83
2022-09-24T19:00:51.421Z,61.04
2022-09-24T19:05:56.453Z,61.21
2022-09-24T19:11:14.473Z,61.45
2022-09-24T19:16:19.619Z,61.64
2022-09-24T19:21:26.037Z,62.02
2022-09-24T19:26:32.290Z,69.03
2022-09-24T19:31:38.222Z,61.33
2022-09-24T19:36:44.928Z,51.95
2022-09-24T19:41:53.086Z,52.82
2022-09-24T19:46:56.166Z,54.32
2022-09-24T19:51:58.970Z,55.40
2022-09-24T19:57:01.870Z,56.45
2022-09-24T20:02:04.888Z,57.48
2022-09-24T20:07:08.277Z,58.28
2022-09-24T20:12:17.070Z,59.37
2022-09-24T20:17:19.902Z,60.20
2022-09-24T20:22:23.247Z,60.87
2022-09-24T20:27:44.873Z,61.76
2022-09-24T20:32:48.422Z,70.30
2022-09-24T20:37:51.458Z,60.24
2022-09-24T20:42:54.280Z,52.39
2022-09-24T20:47:57.388Z,53.49
2022-09-24T20:53:00.260Z,54.88
2022-09-24T20:58:03.305Z,55.79
2022-09-24T21:03:25.669Z,57.03
2022-09-24T21:08:37.662Z,58.09
2022-09-24T21:13:43.903Z,58.79
2022-09-24T21:18:47.802Z,59.57
2022-09-24T21:23:53.568Z,60.22
2022-09-24T21:29:01.121Z,61.07
2022-09-24T21:34:06.931Z,68.81
2022-09-24T21:39:23.194Z,60.68
2022-09-24T21:44:26.275Z,52.02
2022-09-24T21:49:29.826Z,53.00
2022-09-24T21:54:35.959Z,54.26
2022-09-24T21:59:57.373Z,55.36
2022-09-24T22:05:01.682Z,56.71
2022-09-24T22:10:05.529Z,57.54
2022-09-24T22:15:08.547Z,58.42
2022-09-24T22:20:11.409Z,59.37
2022-09-24T22:25:14.365Z,60.11
2022-09-24T22:30:17.427Z,60.86
2022-09-24T22:35:43.250Z,69.15
2022-09-24T22:40:46.566Z,59.80
2022-09-24T22:45:49.456Z,51.84
2022-09-24T22:50:52.971Z,53.21
2022-09-24T22:56:06.186Z,54.71
2022-09-24T23:01:21.699Z,55.79
2022-09-24T23:06:24.871Z,56.84
2022-09-24T23:11:33.389Z,58.07
2022-09-24T23:16:37.695Z,58.87
2022-09-24T23:21:41.670Z,59.80
2022-09-24T23:26:45.098Z,60.58
2022-09-24T23:31:48.313Z,68.42
2022-09-24T23:36:51.104Z,61.14
2022-09-24T23:41:54.061Z,51.69
2022-09-24T23:46:57.665Z,52.27
2022-09-24T23:52:00.677Z,53.91
2022-09-24T23:57:06.959Z,55.35
